Savannah, Texas
Current Conditions -  °F | °C
As of 2:53 AM on Friday 28 Nov 2014 (Local Time) from KDTO Reporting Station
Clear Clear  
Wind Chill: 32°   Ceiling: Unl
Heat Index: 37°   Visibility: 10mi
Dew Point: 28°   Wind: 7mph
Humidity: 70%   Direction: 160°SSE
Pressure: 30.29"   Gusts: NA
Location:  33.2863°N, 96.9901°W
Report Text: KDTO 280853Z AUTO 16006KT 10SM CLR 03/M02 A3029 RMK AO2 SLP256 T00281022 56018
Loading
Personal Weather Stations






























Interactive Weather Map New forecast layout! Learn more

10-Day Weather Forecast

Advertisements
Track Severe Weather on mobile